Time;durP1;ratioP1;P1;durP2;ratioP2;P2;SDS_P1;SDS_P2;PMS_P1;PMS_P2;Temp;Humidity;BMP_temperature;BMP_pressure;BME280_temperature;BME280_humidity;BME280_pressure;Samples;Min_cycle;Max_cycle;Signal;HPM_P1;HPM_P2
2022/05/06 00:02:07;;;;;;;13.67;6.80;;;;;;;;;;5081521;28;20480;-75
2022/05/06 00:04:34;;;;;;;8.37;6.07;;;;;;;;;;5080487;28;20496;-74
2022/05/06 00:07:03;;;;;;;10.90;7.50;;;;;;;;;;5076235;28;20547;-75
2022/05/06 00:09:31;;;;;;;12.00;6.93;;;;;;;;;;5073684;28;20454;-75
2022/05/06 00:11:58;;;;;;;14.60;7.47;;;;;;;;;;5074623;28;20473;-75
2022/05/06 00:14:25;;;;;;;15.87;7.07;;;;;;;;;;5076945;28;20445;-76
2022/05/06 00:16:52;;;;;;;8.77;7.27;;;;;;;;;;5074383;28;20449;-76
2022/05/06 00:19:19;;;;;;;12.13;7.90;;;;;;;;;;5079351;28;20450;-76
2022/05/06 00:21:47;;;;;;;8.80;7.27;;;;;;;;;;5087570;28;20454;-75
2022/05/06 00:24:15;;;;;;;14.40;7.37;;;;;;;;;;5076173;28;20453;-75
2022/05/06 00:26:43;;;;;;;12.73;7.60;;;;;;;;;;5070400;28;20477;-75
2022/05/06 00:29:10;;;;;;;10.60;6.60;;;;;;;;;;5076727;28;20772;-75
2022/05/06 00:31:37;;;;;;;13.03;6.90;;;;;;;;;;5080462;28;20454;-76
2022/05/06 00:34:04;;;;;;;15.13;7.23;;;;;;;;;;5077671;28;20460;-75
2022/05/06 00:36:31;;;;;;;12.10;7.43;;;;;;;;;;5074161;28;20468;-73
2022/05/06 00:38:59;;;;;;;12.93;6.70;;;;;;;;;;5085346;28;20558;-76
2022/05/06 00:41:27;;;;;;;14.97;7.80;;;;;;;;;;5075389;28;20477;-76
2022/05/06 00:43:54;;;;;;;12.70;7.73;;;;;;;;;;5084521;28;21043;-76
2022/05/06 00:46:21;;;;;;;13.40;7.77;;;;;;;;;;5082306;28;20472;-76
2022/05/06 00:48:49;;;;;;;11.83;6.97;;;;;;;;;;5071957;28;20446;-76
2022/05/06 00:51:18;;;;;;;15.20;7.77;;;;;;;;;;5081233;28;20812;-75
2022/05/06 00:53:45;;;;;;;10.60;8.47;;;;;;;;;;5073793;28;20492;-75
2022/05/06 00:56:13;;;;;;;13.17;7.20;;;;;;;;;;5086220;28;20531;-75
2022/05/06 00:58:41;;;;;;;10.50;7.27;;;;;;;;;;5080110;28;20445;-75
2022/05/06 01:01:09;;;;;;;13.20;7.30;;;;;;;;;;5078319;28;20971;-75
2022/05/06 01:03:36;;;;;;;19.87;6.67;;;;;;;;;;5077281;28;20950;-72
2022/05/06 01:06:05;;;;;;;13.60;8.27;;;;;;;;;;5080889;28;21032;-75
2022/05/06 01:08:33;;;;;;;14.53;6.70;;;;;;;;;;5086339;28;20538;-75
2022/05/06 01:11:00;;;;;;;12.03;7.87;;;;;;;;;;5077124;28;20446;-75
2022/05/06 01:13:28;;;;;;;10.10;7.67;;;;;;;;;;5091991;28;20785;-75
2022/05/06 01:15:57;;;;;;;16.00;8.30;;;;;;;;;;5081888;28;20477;-75
2022/05/06 01:18:24;;;;;;;10.97;6.67;;;;;;;;;;5080882;28;20471;-76
2022/05/06 01:20:52;;;;;;;14.67;8.33;;;;;;;;;;5073569;28;20451;-76
2022/05/06 01:23:21;;;;;;;10.80;8.27;;;;;;;;;;5073197;28;20942;-76
2022/05/06 01:25:48;;;;;;;14.47;8.67;;;;;;;;;;5084993;28;20474;-76
2022/05/06 01:28:16;;;;;;;11.00;7.37;;;;;;;;;;5078480;28;20449;-76
2022/05/06 01:30:44;;;;;;;12.83;7.80;;;;;;;;;;5078294;28;20954;-76
2022/05/06 01:33:12;;;;;;;11.93;8.10;;;;;;;;;;5082621;28;20443;-76
2022/05/06 01:35:41;;;;;;;13.27;8.30;;;;;;;;;;5076296;28;20481;-76
2022/05/06 01:38:09;;;;;;;17.80;7.23;;;;;;;;;;5080512;28;20544;-76
2022/05/06 01:40:40;;;;;;;12.60;8.47;;;;;;;;;;5078038;28;20445;-75
2022/05/06 01:43:09;;;;;;;9.87;6.53;;;;;;;;;;5085763;28;20445;-75
2022/05/06 01:45:37;;;;;;;14.20;7.83;;;;;;;;;;5085011;28;20954;-75
2022/05/06 01:48:05;;;;;;;14.17;8.00;;;;;;;;;;5072983;28;20943;-75
2022/05/06 01:50:33;;;;;;;12.17;7.00;;;;;;;;;;5081085;28;20967;-75
2022/05/06 01:53:01;;;;;;;14.83;6.97;;;;;;;;;;5078764;28;20473;-75
2022/05/06 01:55:28;;;;;;;15.70;9.00;;;;;;;;;;5074475;28;20461;-76
2022/05/06 01:57:56;;;;;;;10.73;6.63;;;;;;;;;;5078417;28;20796;-76
2022/05/06 02:00:24;;;;;;;11.30;7.33;;;;;;;;;;5090791;28;20547;-75
2022/05/06 02:02:51;;;;;;;9.63;7.43;;;;;;;;;;5076669;28;20840;-76
2022/05/06 02:05:17;;;;;;;10.47;7.30;;;;;;;;;;5074030;28;20942;-76
2022/05/06 02:07:45;;;;;;;11.10;6.50;;;;;;;;;;5084528;28;20574;-75
2022/05/06 02:10:12;;;;;;;12.80;8.07;;;;;;;;;;5084531;28;20465;-76
2022/05/06 02:12:39;;;;;;;11.83;7.60;;;;;;;;;;5086273;28;20444;-76
2022/05/06 02:15:10;;;;;;;13.30;8.53;;;;;;;;;;5080944;28;20539;-75
2022/05/06 02:17:39;;;;;;;11.53;7.73;;;;;;;;;;5075371;28;20441;-75
2022/05/06 02:20:06;;;;;;;14.13;6.53;;;;;;;;;;5085368;28;20445;-75
2022/05/06 02:22:33;;;;;;;12.77;7.97;;;;;;;;;;5085020;28;20465;-75
2022/05/06 02:25:01;;;;;;;8.40;6.57;;;;;;;;;;5081915;28;20955;-76
2022/05/06 02:27:28;;;;;;;11.07;7.00;;;;;;;;;;5086714;28;20478;-76
2022/05/06 02:35:28;;;;;;;9.43;6.97;;;;;;;;;;5078207;28;20417;-75
2022/05/06 02:37:55;;;;;;;10.10;6.63;;;;;;;;;;5086121;28;20503;-75
2022/05/06 02:40:22;;;;;;;12.17;8.07;;;;;;;;;;5077788;28;20971;-76
2022/05/06 02:42:49;;;;;;;13.73;7.07;;;;;;;;;;5082229;28;20445;-76
2022/05/06 02:45:16;;;;;;;13.10;7.47;;;;;;;;;;5084979;28;20445;-76
2022/05/06 02:47:45;;;;;;;11.70;6.90;;;;;;;;;;5079266;28;20491;-75
2022/05/06 02:50:12;;;;;;;12.77;7.60;;;;;;;;;;5077831;28;20446;-75
2022/05/06 02:52:39;;;;;;;10.03;6.53;;;;;;;;;;5079526;28;20469;-75
2022/05/06 02:55:07;;;;;;;11.07;6.90;;;;;;;;;;5075888;28;20445;-75
2022/05/06 02:57:34;;;;;;;9.37;6.60;;;;;;;;;;5078989;28;20960;-74
2022/05/06 03:00:01;;;;;;;11.63;6.40;;;;;;;;;;5084149;28;21044;-73
2022/05/06 03:02:29;;;;;;;13.20;7.57;;;;;;;;;;5082960;28;20945;-75
2022/05/06 03:04:58;;;;;;;12.00;7.97;;;;;;;;;;5078145;28;20497;-76
2022/05/06 03:07:26;;;;;;;9.47;6.40;;;;;;;;;;5070691;28;20806;-76
2022/05/06 03:09:53;;;;;;;9.60;6.17;;;;;;;;;;5084388;28;20545;-75
2022/05/06 03:12:22;;;;;;;9.57;7.17;;;;;;;;;;5084324;28;20499;-75
2022/05/06 03:14:50;;;;;;;11.07;6.60;;;;;;;;;;5090030;28;20890;-75
2022/05/06 03:17:17;;;;;;;13.60;7.57;;;;;;;;;;5077509;28;20457;-75
2022/05/06 03:19:44;;;;;;;8.83;6.40;;;;;;;;;;5083155;28;20456;-75
2022/05/06 03:22:13;;;;;;;12.33;7.17;;;;;;;;;;5085369;28;20532;-75
2022/05/06 03:24:40;;;;;;;9.90;6.80;;;;;;;;;;5082913;28;20454;-75
2022/05/06 03:27:59;;;;;;;13.03;7.10;;;;;;;;;;5084298;28;20476;-75
2022/05/06 03:29:55;;;;;;;9.73;7.60;;;;;;;;;;5070974;28;20674;-75
2022/05/06 03:32:23;;;;;;;10.70;7.30;;;;;;;;;;5084269;28;20462;-75
2022/05/06 03:34:50;;;;;;;10.70;6.33;;;;;;;;;;5076269;28;20460;-74
2022/05/06 03:37:19;;;;;;;9.33;6.53;;;;;;;;;;5076888;28;20480;-77
2022/05/06 03:39:46;;;;;;;12.37;6.47;;;;;;;;;;5078056;28;20540;-74
2022/05/06 03:42:14;;;;;;;7.77;6.50;;;;;;;;;;5084261;28;20453;-75
2022/05/06 03:44:41;;;;;;;8.20;6.00;;;;;;;;;;5082730;28;20449;-75
2022/05/06 03:47:08;;;;;;;10.77;8.07;;;;;;;;;;5083503;28;20477;-75
2022/05/06 03:49:35;;;;;;;11.30;6.47;;;;;;;;;;5083121;28;20445;-76
2022/05/06 03:52:03;;;;;;;9.00;6.50;;;;;;;;;;5070760;28;20535;-75
2022/05/06 03:54:33;;;;;;;9.83;6.70;;;;;;;;;;5071036;28;20448;-77
2022/05/06 03:57:00;;;;;;;9.83;6.73;;;;;;;;;;5077262;28;20456;-76
2022/05/06 03:59:28;;;;;;;16.27;7.43;;;;;;;;;;5081870;28;20437;-76
2022/05/06 04:01:55;;;;;;;9.57;6.03;;;;;;;;;;5076780;28;20453;-75
2022/05/06 04:04:26;;;;;;;9.40;6.53;;;;;;;;;;5077215;28;20476;-76
2022/05/06 04:06:53;;;;;;;9.93;5.90;;;;;;;;;;5081921;28;20569;-75
2022/05/06 04:09:21;;;;;;;6.97;5.40;;;;;;;;;;5083911;28;20460;-74
2022/05/06 04:11:49;;;;;;;10.50;6.87;;;;;;;;;;5069789;28;20559;-75
2022/05/06 04:14:17;;;;;;;7.63;5.73;;;;;;;;;;5083995;28;20473;-75
2022/05/06 04:16:44;;;;;;;10.33;6.67;;;;;;;;;;5078587;28;20460;-75
2022/05/06 04:19:11;;;;;;;8.23;6.27;;;;;;;;;;5075949;28;21017;-75
2022/05/06 04:24:23;;;;;;;11.13;6.30;;;;;;;;;;5077022;28;20606;-75
2022/05/06 04:26:51;;;;;;;11.30;6.83;;;;;;;;;;5077301;28;20587;-75
2022/05/06 04:29:18;;;;;;;14.47;7.10;;;;;;;;;;5087837;28;20861;-75
2022/05/06 04:31:46;;;;;;;10.57;6.47;;;;;;;;;;5085904;28;20445;-75
2022/05/06 04:34:13;;;;;;;9.93;5.93;;;;;;;;;;5080488;28;20539;-75
2022/05/06 04:36:40;;;;;;;8.57;6.60;;;;;;;;;;5080254;28;20542;-74
2022/05/06 04:39:08;;;;;;;10.07;7.30;;;;;;;;;;5080567;28;20444;-74
2022/05/06 04:41:35;;;;;;;9.30;6.07;;;;;;;;;;5092275;28;20513;-75
2022/05/06 04:44:03;;;;;;;11.27;6.93;;;;;;;;;;5075152;28;20453;-74
2022/05/06 04:46:30;;;;;;;9.93;6.40;;;;;;;;;;5076970;28;21349;-75
2022/05/06 04:48:57;;;;;;;9.80;6.40;;;;;;;;;;5080673;28;20447;-75
2022/05/06 04:51:24;;;;;;;6.87;5.97;;;;;;;;;;5086505;28;20457;-74
2022/05/06 04:53:54;;;;;;;9.60;6.50;;;;;;;;;;5080880;28;20678;-75
2022/05/06 04:56:22;;;;;;;7.17;5.93;;;;;;;;;;5079217;28;20916;-74
2022/05/06 04:58:49;;;;;;;10.47;6.70;;;;;;;;;;5084027;28;20516;-74
2022/05/06 05:01:17;;;;;;;9.43;6.50;;;;;;;;;;5084862;28;20543;-74
2022/05/06 05:03:45;;;;;;;11.17;6.50;;;;;;;;;;5072685;28;20448;-75
2022/05/06 05:06:13;;;;;;;6.90;5.20;;;;;;;;;;5087351;28;20476;-75
2022/05/06 05:08:40;;;;;;;7.47;5.30;;;;;;;;;;5084142;28;20497;-74
2022/05/06 05:11:08;;;;;;;11.77;6.03;;;;;;;;;;5079843;28;20453;-74
2022/05/06 05:13:38;;;;;;;8.97;5.80;;;;;;;;;;5083241;28;20446;-74
2022/05/06 05:16:06;;;;;;;10.03;6.07;;;;;;;;;;5086601;28;20477;-74
2022/05/06 05:18:34;;;;;;;7.13;5.33;;;;;;;;;;5078030;28;20458;-74
2022/05/06 05:21:02;;;;;;;7.97;4.97;;;;;;;;;;5086792;28;20922;-74
2022/05/06 05:23:31;;;;;;;11.10;5.53;;;;;;;;;;5073351;28;20462;-75
2022/05/06 05:25:58;;;;;;;9.90;5.80;;;;;;;;;;5080207;28;21017;-74
2022/05/06 05:28:26;;;;;;;7.00;5.47;;;;;;;;;;5087811;28;20487;-76
2022/05/06 05:30:53;;;;;;;7.93;5.30;;;;;;;;;;5076723;28;20452;-72
2022/05/06 05:33:20;;;;;;;8.00;5.57;;;;;;;;;;5085679;28;20437;-73
2022/05/06 05:35:47;;;;;;;7.50;5.83;;;;;;;;;;5076276;28;20934;-73
2022/05/06 05:38:16;;;;;;;8.30;6.00;;;;;;;;;;5084785;28;20456;-77
2022/05/06 05:40:43;;;;;;;5.40;4.67;;;;;;;;;;5078561;28;20528;-76
2022/05/06 05:48:19;;;;;;;8.07;5.10;;;;;;;;;;5079890;28;20545;-76
2022/05/06 05:48:42;;;;;;;6.83;5.00;;;;;;;;;;5083439;28;20487;-73
2022/05/06 05:51:09;;;;;;;8.10;5.83;;;;;;;;;;5074843;28;20800;-74
2022/05/06 05:53:38;;;;;;;11.10;5.50;;;;;;;;;;5077764;28;20522;-74
2022/05/06 05:56:05;;;;;;;8.83;4.97;;;;;;;;;;5079795;28;21001;-73
2022/05/06 05:58:34;;;;;;;6.70;5.27;;;;;;;;;;5085199;28;20938;-73
2022/05/06 06:01:01;;;;;;;9.07;5.33;;;;;;;;;;5081841;28;20449;-76
2022/05/06 06:03:28;;;;;;;9.23;5.60;;;;;;;;;;5085581;28;20453;-78
2022/05/06 06:05:56;;;;;;;8.10;4.80;;;;;;;;;;5082804;28;20440;-78
2022/05/06 06:08:24;;;;;;;7.97;6.03;;;;;;;;;;5084892;28;20515;-74
2022/05/06 06:10:53;;;;;;;7.77;5.20;;;;;;;;;;5081181;28;20471;-73
2022/05/06 06:13:22;;;;;;;8.10;5.53;;;;;;;;;;5072028;28;20455;-73
2022/05/06 06:15:49;;;;;;;7.17;5.07;;;;;;;;;;5084247;28;20483;-73
2022/05/06 06:18:18;;;;;;;9.13;5.90;;;;;;;;;;5079278;28;21011;-74
2022/05/06 06:20:45;;;;;;;8.30;4.40;;;;;;;;;;5077092;28;20449;-74
2022/05/06 06:23:12;;;;;;;7.50;5.63;;;;;;;;;;5091942;28;20449;-73
2022/05/06 06:25:40;;;;;;;6.17;5.43;;;;;;;;;;5074854;28;20839;-72
2022/05/06 06:28:08;;;;;;;10.43;5.80;;;;;;;;;;5077695;28;21065;-72
2022/05/06 06:30:36;;;;;;;8.13;5.80;;;;;;;;;;5074387;28;20458;-73
2022/05/06 06:33:03;;;;;;;8.93;5.50;;;;;;;;;;5072474;28;20449;-73
2022/05/06 06:35:30;;;;;;;8.13;5.97;;;;;;;;;;5070194;28;20456;-73
2022/05/06 06:37:58;;;;;;;7.00;5.93;;;;;;;;;;5072694;28;20465;-72
2022/05/06 06:40:25;;;;;;;9.60;5.80;;;;;;;;;;5071944;28;20536;-72
2022/05/06 06:42:53;;;;;;;8.40;5.70;;;;;;;;;;5074569;28;20451;-72
2022/05/06 06:45:22;;;;;;;7.07;5.33;;;;;;;;;;5076171;28;20449;-73
2022/05/06 06:47:49;;;;;;;7.47;5.30;;;;;;;;;;5071295;28;20501;-73
2022/05/06 06:50:16;;;;;;;12.17;6.67;;;;;;;;;;5073518;28;20529;-72
2022/05/06 06:52:43;;;;;;;6.77;4.73;;;;;;;;;;5071180;28;20505;-73
2022/05/06 06:55:10;;;;;;;7.80;5.43;;;;;;;;;;5078618;28;20458;-73
2022/05/06 06:57:38;;;;;;;8.80;6.17;;;;;;;;;;5075274;28;20456;-73
2022/05/06 07:00:05;;;;;;;10.90;7.03;;;;;;;;;;5073934;28;20450;-73
2022/05/06 07:02:34;;;;;;;9.03;5.53;;;;;;;;;;5080261;28;20444;-72
2022/05/06 07:05:01;;;;;;;7.23;5.20;;;;;;;;;;5079631;28;20461;-74
2022/05/06 07:12:58;;;;;;;7.13;5.30;;;;;;;;;;5084009;28;20425;-73
2022/05/06 07:15:29;;;;;;;5.80;4.47;;;;;;;;;;5069884;28;20557;-73
2022/05/06 07:17:58;;;;;;;6.27;4.37;;;;;;;;;;5084089;28;20437;-72
2022/05/06 07:20:25;;;;;;;8.83;5.90;;;;;;;;;;5069669;28;20969;-73
2022/05/06 07:22:52;;;;;;;8.67;5.00;;;;;;;;;;5075341;28;20542;-73
2022/05/06 07:25:19;;;;;;;7.90;5.30;;;;;;;;;;5077313;28;20445;-73
2022/05/06 07:27:47;;;;;;;4.97;4.37;;;;;;;;;;5084149;28;20570;-74
2022/05/06 07:30:14;;;;;;;7.60;6.03;;;;;;;;;;5074060;28;20525;-74
2022/05/06 07:32:41;;;;;;;8.83;6.10;;;;;;;;;;5078744;28;20458;-74
2022/05/06 07:35:10;;;;;;;9.23;4.90;;;;;;;;;;5083420;28;20524;-73
2022/05/06 07:37:37;;;;;;;5.30;4.40;;;;;;;;;;5070655;28;20453;-73
2022/05/06 07:40:05;;;;;;;9.50;5.23;;;;;;;;;;5071026;28;20452;-73
2022/05/06 07:42:34;;;;;;;9.00;5.40;;;;;;;;;;5074072;28;20458;-73
2022/05/06 07:45:01;;;;;;;5.90;4.00;;;;;;;;;;5083092;28;20457;-73
2022/05/06 07:47:28;;;;;;;8.53;4.73;;;;;;;;;;5078335;28;20487;-72
2022/05/06 07:49:55;;;;;;;7.20;4.07;;;;;;;;;;5070531;28;20457;-73
2022/05/06 07:52:24;;;;;;;7.60;5.30;;;;;;;;;;5081503;28;20834;-73
2022/05/06 07:54:51;;;;;;;6.17;4.73;;;;;;;;;;5079974;28;20696;-73
2022/05/06 07:57:18;;;;;;;6.67;4.67;;;;;;;;;;5072893;28;20450;-72
2022/05/06 07:59:45;;;;;;;6.30;4.67;;;;;;;;;;5080905;28;20453;-72
2022/05/06 08:04:58;;;;;;;5.93;4.47;;;;;;;;;;5080776;28;20465;-72
2022/05/06 08:07:26;;;;;;;4.83;4.33;;;;;;;;;;5080424;28;20481;-73
2022/05/06 08:09:53;;;;;;;6.47;4.30;;;;;;;;;;5076049;28;20459;-73
2022/05/06 08:12:20;;;;;;;4.47;3.97;;;;;;;;;;5087538;28;20444;-74
2022/05/06 08:14:48;;;;;;;4.73;3.90;;;;;;;;;;5081787;28;20952;-74
2022/05/06 08:17:15;;;;;;;5.77;4.40;;;;;;;;;;5079698;28;20463;-72
2022/05/06 08:19:42;;;;;;;4.93;3.83;;;;;;;;;;5083171;28;20464;-73
2022/05/06 08:22:11;;;;;;;4.83;3.23;;;;;;;;;;5081156;28;20522;-72
2022/05/06 08:24:39;;;;;;;5.80;4.10;;;20.90;99.90;;;;;;5081435;28;20455;-73
2022/05/06 08:27:06;;;;;;;5.67;4.50;;;14.90;99.90;;;;;;5086004;28;20531;-72
2022/05/06 08:29:35;;;;;;;8.97;5.33;;;14.70;1.00;;;;;;5087825;28;20914;-72
2022/05/06 08:32:03;;;;;;;7.80;3.70;;;14.90;99.90;;;;;;5080724;28;20476;-73
2022/05/06 08:34:30;;;;;;;5.23;4.00;;;15.00;99.90;;;;;;5076195;28;20514;-72
2022/05/06 08:36:57;;;;;;;5.07;4.47;;;15.00;1.00;;;;;;5072827;28;20805;-73
2022/05/06 08:39:24;;;;;;;5.50;3.70;;;14.90;99.90;;;;;;5078651;28;20494;-72
2022/05/06 08:41:54;;;;;;;5.37;4.00;;;15.10;46.00;;;;;;5076373;28;20795;-72
2022/05/06 08:52:36;;;;;;;4.50;3.93;;;14.70;78.80;;;;;;5079925;28;21116;-73
2022/05/06 08:55:06;;;;;;;4.40;3.80;;;14.80;1.00;;;;;;5079535;28;20980;-76
2022/05/06 08:57:35;;;;;;;4.20;3.30;;;14.90;1.00;;;;;;5077845;28;20893;-75
2022/05/06 09:00:03;;;;;;;5.30;4.10;;;15.10;1.00;;;;;;5078683;28;20504;-73
2022/05/06 09:02:31;;;;;;;9.50;4.40;;;15.10;1.00;;;;;;5085322;28;20448;-73
2022/05/06 09:04:59;;;;;;;4.80;3.57;;;15.10;1.00;;;;;;5089395;28;20484;-71
2022/05/06 09:07:27;;;;;;;4.93;3.77;;;15.20;1.00;;;;;;5071562;28;20638;-72
2022/05/06 09:10:14;;;;;;;4.70;3.40;;;15.10;1.00;;;;;;5082628;28;20480;-72
2022/05/06 09:12:44;;;;;;;5.07;4.10;;;15.10;1.00;;;;;;5075969;28;20450;-74
2022/05/06 09:18:03;;;;;;;5.60;4.50;;;15.10;1.00;;;;;;5033997;28;20444;-72
2022/05/06 09:20:30;;;;;;;4.70;3.70;;;15.20;1.00;;;;;;5085840;28;20442;-73
2022/05/06 09:22:57;;;;;;;4.43;3.40;;;15.10;1.00;;;;;;5075200;28;20444;-74
2022/05/06 09:25:42;;;;;;;6.67;5.20;;;15.20;1.00;;;;;;5087948;28;20445;-75
2022/05/06 09:28:22;;;;;;;4.33;3.90;;;15.30;1.00;;;;;;5074169;28;20513;-73
2022/05/06 09:30:59;;;;;;;4.60;4.00;;;;;;;;;;5078060;28;20436;-75
2022/05/06 09:33:26;;;;;;;4.13;3.73;;;;;;;;;;5073970;28;20511;-74
2022/05/06 09:35:54;;;;;;;4.90;3.50;;;;;;;;;;5076411;28;20436;-76
2022/05/06 09:38:22;;;;;;;3.83;3.30;;;;;;;;;;5077443;28;20568;-77
2022/05/06 09:40:49;;;;;;;5.20;3.27;;;;;;;;;;5075207;28;20440;-75
2022/05/06 09:43:19;;;;;;;4.30;3.73;;;;;;;;;;5079699;28;20450;-74
2022/05/06 09:45:46;;;;;;;4.53;3.13;;;;;;;;;;5079401;28;20449;-74
2022/05/06 09:48:14;;;;;;;3.60;3.30;;;;;;;;;;5078951;28;20483;-75
2022/05/06 09:50:43;;;;;;;5.03;3.73;;;15.20;1.00;;;;;;5080031;28;20454;-75
2022/05/06 09:53:12;;;;;;;4.70;3.60;;;15.70;99.90;;;;;;5075087;28;21044;-74
2022/05/06 09:55:41;;;;;;;3.40;3.10;;;15.90;74.40;;;;;;5079229;28;20451;-77
2022/05/06 09:58:08;;;;;;;6.43;4.47;;;15.70;99.90;;;;;;5078075;28;20473;-79
2022/05/06 10:00:38;;;;;;;5.20;4.20;;;16.00;84.10;;;;;;5077819;28;20485;-74
2022/05/06 10:03:07;;;;;;;6.73;4.30;;;16.30;26.10;;;;;;5077399;28;20488;-78
2022/05/06 10:05:36;;;;;;;3.87;2.83;;;16.30;1.00;;;;;;5078080;28;20521;-75
2022/05/06 10:08:05;;;;;;;5.40;5.00;;;16.50;1.00;;;;;;5073510;28;20544;-75
2022/05/06 10:10:38;;;;;;;10.67;4.10;;;16.70;1.00;;;;;;5076635;28;20543;-76
2022/05/06 10:13:10;;;;;;;3.93;3.50;;;16.60;1.00;;;;;;5078451;28;20445;-76
2022/05/06 10:15:38;;;;;;;7.90;3.97;;;;;;;;;;5071095;28;20442;-77
2022/05/06 10:18:07;;;;;;;5.60;3.77;;;;;;;;;;5084481;28;20878;-77
2022/05/06 10:20:50;;;;;;;8.43;4.13;;;;;;;;;;5076619;28;20461;-76
2022/05/06 10:23:18;;;;;;;4.63;3.43;;;;;;;;;;5081795;28;20445;-77
2022/05/06 10:25:55;;;;;;;5.17;3.90;;;;;;;;;;5078731;28;20445;-77
2022/05/06 10:34:29;;;;;;;4.90;4.20;;;17.40;1.00;;;;;;5073245;28;20940;-74
2022/05/06 10:36:57;;;;;;;5.53;5.03;;;17.20;1.00;;;;;;5073202;28;20450;-76
2022/05/06 10:39:26;;;;;;;7.53;4.27;;;16.60;1.00;;;;;;5071321;28;20454;-75
2022/05/06 10:42:04;;;;;;;7.43;4.40;;;17.00;1.00;;;;;;5072522;28;20453;-76
2022/05/06 10:44:39;;;;;;;3.97;3.67;;;17.50;1.00;;;;;;5073065;28;20476;-73
2022/05/06 10:47:48;;;;;;;4.33;3.53;;;17.70;1.00;;;;;;5078385;28;20446;-72
2022/05/06 10:50:19;;;;;;;4.20;3.70;;;18.00;99.90;;;;;;5076635;28;20464;-73
2022/05/06 10:52:46;;;;;;;4.77;4.07;;;18.20;99.90;;;;;;5070358;28;20484;-75
2022/05/06 10:55:19;;;;;;;5.77;3.87;;;18.20;99.90;;;;;;5071231;28;20448;-75
2022/05/06 10:57:48;;;;;;;5.80;3.87;;;17.80;99.90;;;;;;5072358;28;20448;-75
2022/05/06 11:00:16;;;;;;;4.40;3.93;;;17.70;99.90;;;;;;5073413;28;20889;-75
2022/05/06 11:02:43;;;;;;;4.47;3.83;;;18.00;99.90;;;;;;5070237;28;20544;-74
2022/05/06 11:05:12;;;;;;;4.53;3.20;;;18.10;99.90;;;;;;5073110;28;20453;-74
2022/05/06 11:07:42;;;;;;;3.97;3.27;;;18.40;99.90;;;;;;5074578;28;20458;-75
2022/05/06 11:10:10;;;;;;;5.07;3.00;;;18.60;99.90;;;;;;5081428;28;20478;-75
2022/05/06 11:12:38;;;;;;;6.43;3.47;;;18.40;99.90;;;;;;5073248;28;20798;-76
2022/05/06 11:15:07;;;;;;;6.80;3.10;;;18.50;99.90;;;;;;5071547;28;20460;-77
2022/05/06 11:17:34;;;;;;;3.37;3.07;;;18.90;99.90;;;;;;5071731;28;20438;-76
2022/05/06 11:20:03;;;;;;;4.00;3.33;;;19.10;99.90;;;;;;5072192;28;20454;-76
2022/05/06 11:22:33;;;;;;;4.07;3.27;;;18.90;99.90;;;;;;5073339;28;20453;-77
2022/05/06 11:25:02;;;;;;;3.20;2.90;;;19.20;99.90;;;;;;5080278;28;20487;-77
2022/05/06 11:27:28;;;;;;;4.50;2.57;;;19.20;99.90;;;;;;5073047;28;20603;-73
2022/05/06 11:29:57;;;;;;;3.20;2.90;;;19.40;99.90;;;;;;5069608;28;20493;-77
2022/05/06 11:32:25;;;;;;;4.37;3.07;;;19.20;99.90;;;;;;5081849;28;20538;-73
2022/05/06 11:34:58;;;;;;;3.33;2.60;;;19.30;99.90;;;;;;5076020;28;20456;-77
2022/05/06 11:37:27;;;;;;;2.97;2.67;;;19.20;99.90;;;;;;5077539;28;20433;-77
2022/05/06 11:40:18;;;;;;;4.37;3.13;;;19.50;99.90;;;;;;5070485;28;21260;-78
2022/05/06 11:42:43;;;;;;;3.77;3.10;;;19.20;99.90;;;;;;5069796;28;20449;-77
2022/05/06 11:48:05;;;;;;;3.43;2.30;;;19.40;99.90;;;;;;5070924;28;20937;-77
2022/05/06 11:50:32;;;;;;;6.20;3.40;;;19.80;99.90;;;;;;5078161;28;20556;-76
2022/05/06 11:53:01;;;;;;;3.23;2.80;;;19.60;99.90;;;;;;5078320;28;20485;-77
2022/05/06 11:55:28;;;;;;;5.40;3.47;;;19.50;99.90;;;;;;5070608;28;20452;-76
2022/05/06 11:57:57;;;;;;;8.00;3.33;;;19.60;99.90;;;;;;5070609;28;20540;-77
2022/05/06 12:00:25;;;;;;;3.73;3.07;;;19.20;99.90;;;;;;5075625;28;20969;-77
2022/05/06 12:02:53;;;;;;;3.93;2.43;;;19.10;99.90;;;;;;5078198;28;20457;-78
2022/05/06 12:05:20;;;;;;;7.20;2.40;;;19.20;99.90;;;;;;5076904;28;20528;-77
2022/05/06 12:07:48;;;;;;;4.17;3.20;;;19.20;99.90;;;;;;5078612;28;20455;-77
2022/05/06 12:10:24;;;;;;;3.27;2.80;;;19.20;99.90;;;;;;5071776;28;20513;-77
2022/05/06 12:12:57;;;;;;;2.90;2.47;;;19.30;99.90;;;;;;5076486;28;20709;-78
2022/05/06 12:15:31;;;;;;;3.07;2.40;;;19.50;99.90;;;;;;5075612;28;20525;-78
2022/05/06 12:18:09;;;;;;;3.17;2.73;;;19.30;99.90;;;;;;5080973;28;20503;-78
2022/05/06 12:20:37;;;;;;;3.20;2.80;;;19.10;99.90;;;;;;5078372;28;20433;-77
2022/05/06 12:23:05;;;;;;;3.70;2.80;;;19.10;99.90;;;;;;5075749;28;20453;-77
2022/05/06 12:25:35;;;;;;;3.70;3.07;;;19.10;99.90;;;;;;5073302;28;20444;-78
2022/05/06 12:28:10;;;;;;;3.47;3.07;;;19.10;99.90;;;;;;5081449;28;20536;-77
2022/05/06 12:30:38;;;;;;;3.93;2.83;;;19.20;99.90;;;;;;5071120;28;20465;-76
2022/05/06 12:33:07;;;;;;;5.17;2.50;;;19.10;99.90;;;;;;5068423;28;20817;-75
2022/05/06 12:35:57;;;;;;;2.53;2.33;;;19.30;99.90;;;;;;5069722;28;20532;-76
2022/05/06 12:38:24;;;;;;;3.90;3.00;;;19.50;99.90;;;;;;5081103;28;20441;-73
2022/05/06 12:40:52;;;;;;;2.97;2.67;;;19.90;99.90;;;;;;5069308;28;20797;-77
2022/05/06 12:43:27;;;;;;;4.33;3.20;;;19.80;99.90;;;;;;5073393;28;20984;-77
2022/05/06 12:45:56;;;;;;;4.87;3.00;;;19.60;99.90;;;;;;5070295;28;20454;-78
2022/05/06 12:51:08;;;;;;;2.70;2.43;;;19.60;99.90;;;;;;5076618;28;20465;-78
2022/05/06 12:53:35;;;;;;;4.00;2.70;;;19.70;99.90;;;;;;5073488;28;20833;-78
2022/05/06 12:56:02;;;;;;;2.33;2.10;;;19.60;99.90;;;;;;5076212;28;20456;-79
2022/05/06 12:58:31;;;;;;;3.63;2.70;;;19.50;99.90;;;;;;5079892;28;20453;-79
2022/05/06 13:00:59;;;;;;;2.77;2.37;;;19.50;99.90;;;;;;5073734;28;20488;-78
2022/05/06 13:03:27;;;;;;;3.87;2.30;;;19.20;99.90;;;;;;5082712;28;20450;-76
2022/05/06 13:05:54;;;;;;;2.30;2.10;;;19.20;99.90;;;;;;5081556;28;20450;-78
2022/05/06 13:08:21;;;;;;;2.90;2.27;;;19.50;99.90;;;;;;5074446;28;20453;-78
2022/05/06 13:10:48;;;;;;;5.00;2.80;;;19.30;99.90;;;;;;5076792;28;20555;-79
2022/05/06 13:13:15;;;;;;;5.40;2.63;;;19.40;99.90;;;;;;5080409;28;20885;-78
2022/05/06 13:15:44;;;;;;;2.10;1.90;;;19.60;99.90;;;;;;5072169;28;20540;-76
2022/05/06 13:18:11;;;;;;;3.00;2.70;;;19.90;99.90;;;;;;5080236;28;20519;-77
2022/05/06 13:20:38;;;;;;;3.87;2.63;;;19.80;96.90;;;;;;5073116;28;20501;-79
2022/05/06 13:23:05;;;;;;;2.90;2.50;;;19.50;97.20;;;;;;5073104;28;20446;-77
2022/05/06 13:25:32;;;;;;;3.00;2.70;;;19.80;97.80;;;;;;5071796;28;20457;-74
2022/05/06 13:27:59;;;;;;;4.13;2.80;;;19.50;98.30;;;;;;5070043;28;20611;-77
2022/05/06 13:30:27;;;;;;;4.43;2.67;;;19.50;98.50;;;;;;5079156;28;20526;-76
2022/05/06 13:32:55;;;;;;;2.83;2.37;;;19.70;96.90;;;;;;5076095;28;20507;-77
2022/05/06 13:35:22;;;;;;;2.83;2.53;;;19.50;98.40;;;;;;5076417;28;20455;-76
2022/05/06 13:37:49;;;;;;;3.17;2.77;;;19.60;96.20;;;;;;5072640;28;20453;-76
2022/05/06 13:40:16;;;;;;;3.43;2.93;;;19.70;94.00;;;;;;5081187;28;20449;-76
2022/05/06 13:42:43;;;;;;;2.97;2.50;;;19.70;95.50;;;;;;5080018;28;20457;-76
2022/05/06 13:45:10;;;;;;;3.00;2.70;;;19.60;94.60;;;;;;5075207;28;20460;-76
2022/05/06 13:47:37;;;;;;;3.77;2.87;;;19.40;93.90;;;;;;5072048;28;20508;-76
2022/05/06 13:50:07;;;;;;;3.00;2.70;;;19.30;93.70;;;;;;5077345;28;20560;-76
2022/05/06 13:52:34;;;;;;;3.30;2.50;;;19.40;93.70;;;;;;5080345;28;20482;-76
2022/05/06 13:55:03;;;;;;;2.60;2.40;;;19.30;93.90;;;;;;5072586;28;20450;-76
2022/05/06 14:00:15;;;;;;;3.30;2.60;;;19.40;99.90;;;;;;5077533;28;20440;-76
2022/05/06 14:02:42;;;;;;;3.20;2.63;;;19.50;97.40;;;;;;5073020;28;20449;-73
2022/05/06 14:05:10;;;;;;;4.17;2.50;;;19.50;95.90;;;;;;5072818;28;20632;-78
2022/05/06 14:07:37;;;;;;;3.30;2.57;;;19.40;94.10;;;;;;5074292;28;20536;-75
2022/05/06 14:10:05;;;;;;;2.50;2.07;;;19.50;97.20;;;;;;5074766;28;20652;-76
2022/05/06 14:12:32;;;;;;;2.30;2.10;;;19.60;90.90;;;;;;5075253;28;20441;-75
2022/05/06 14:15:00;;;;;;;3.50;2.43;;;19.80;90.60;;;;;;5075055;28;20798;-76
2022/05/06 14:17:27;;;;;;;2.40;2.20;;;19.70;90.70;;;;;;5073104;28;20457;-78
2022/05/06 14:19:53;;;;;;;2.80;2.60;;;19.80;91.20;;;;;;5073673;28;20449;-77
2022/05/06 14:22:22;;;;;;;3.47;3.10;;;19.80;90.00;;;;;;5071224;28;20813;-75
2022/05/06 14:24:49;;;;;;;3.77;2.63;;;19.70;97.30;;;;;;5071015;28;20529;-77
2022/05/06 14:27:17;;;;;;;3.33;2.47;;;19.60;82.20;;;;;;5079340;28;20819;-76
2022/05/06 14:29:45;;;;;;;3.13;2.73;;;19.70;88.20;;;;;;5073909;28;20484;-75
2022/05/06 14:32:12;;;;;;;3.43;2.53;;;19.70;90.30;;;;;;5075375;28;20449;-75
2022/05/06 14:34:39;;;;;;;3.20;2.70;;;19.70;88.20;;;;;;5075787;28;20460;-75
2022/05/06 14:37:06;;;;;;;3.80;2.70;;;19.50;90.00;;;;;;5074947;28;20457;-75
2022/05/06 14:39:35;;;;;;;3.07;2.77;;;19.70;90.40;;;;;;5071038;28;20449;-74
2022/05/06 14:42:03;;;;;;;4.07;3.10;;;19.60;84.90;;;;;;5074048;28;20451;-74
2022/05/06 14:44:30;;;;;;;4.17;2.30;;;19.70;90.90;;;;;;5071782;28;20441;-75